Time;durP1;ratioP1;P1;durP2;ratioP2;P2;SDS_P1;SDS_P2;PMS_P1;PMS_P2;Temp;Humidity;BMP_temperature;BMP_pressure;BME280_temperature;BME280_humidity;BME280_pressure;Samples;Min_cycle;Max_cycle;Signal;HPM_P1;HPM_P2
2022/05/12 00:01:08;;;;;;;5.87;5.57;;;;;;;14.13;100.00;96806.81;4936838;28;21108;-59
2022/05/12 00:03:36;;;;;;;5.53;5.03;;;;;;;14.13;100.00;96799.63;4968279;28;20579;-58
2022/05/12 00:06:05;;;;;;;6.07;5.40;;;;;;;14.13;100.00;96799.63;4962630;28;20209;-61
2022/05/12 00:08:34;;;;;;;5.30;4.90;;;;;;;14.14;100.00;96801.25;4976882;28;20233;-58
2022/05/12 00:11:03;;;;;;;5.73;5.23;;;;;;;14.14;100.00;96798.59;4933743;28;21589;-55
2022/05/12 00:13:32;;;;;;;6.23;5.83;;;;;;;14.19;100.00;96795.28;4983438;28;20237;-62
2022/05/12 00:16:01;;;;;;;6.67;5.57;;;;;;;14.26;100.00;96797.91;4935008;28;20464;-58
2022/05/12 00:18:30;;;;;;;5.70;5.30;;;;;;;14.29;100.00;96786.81;4971064;28;20213;-64
2022/05/12 00:20:58;;;;;;;8.50;5.83;;;;;;;14.42;100.00;96799.22;4966205;28;20236;-61
2022/05/12 00:23:28;;;;;;;6.77;6.27;;;;;;;14.38;100.00;96796.16;4981099;28;20856;-61
2022/05/12 00:25:58;;;;;;;6.27;5.87;;;;;;;14.56;100.00;96802.56;4944129;28;20778;-60
2022/05/12 00:28:27;;;;;;;8.53;6.80;;;;;;;14.45;100.00;96799.59;4963447;28;20749;-62
2022/05/12 00:30:58;;;;;;;6.67;6.17;;;;;;;14.33;100.00;96799.47;4927802;28;20221;-61
2022/05/12 00:33:28;;;;;;;10.13;6.80;;;;;;;14.32;100.00;96819.16;4967000;28;20237;-59
2022/05/12 00:35:58;;;;;;;6.93;6.27;;;;;;;14.27;100.00;96810.22;4959523;28;20347;-61
2022/05/12 00:38:26;;;;;;;7.47;6.80;;;;;;;14.22;100.00;96812.72;4976072;28;20240;-61
2022/05/12 00:40:54;;;;;;;7.10;6.60;;;;;;;14.30;100.00;96807.91;4947039;28;20348;-60
2022/05/12 00:43:40;;;;;;;7.23;6.73;;;;;;;14.32;100.00;96805.03;4960337;28;20238;-59
2022/05/12 00:46:11;;;;;;;8.20;6.87;;;;;;;14.25;100.00;96801.63;4972681;28;20761;-63
2022/05/12 00:48:39;;;;;;;7.27;6.77;;;;;;;14.12;100.00;96797.19;4935632;28;20212;-61
2022/05/12 00:51:09;;;;;;;7.40;6.80;;;;;;;14.02;100.00;96795.00;4960808;28;20522;-62
2022/05/12 00:53:39;;;;;;;6.77;6.27;;;;;;;13.95;100.00;96797.69;4975851;28;20228;-61
2022/05/12 00:56:11;;;;;;;8.07;7.47;;;;;;;13.91;100.00;96806.34;4946029;28;20260;-61
2022/05/12 00:58:41;;;;;;;7.37;6.70;;;;;;;13.92;100.00;96811.44;4963911;28;20209;-59
2022/05/12 01:01:11;;;;;;;6.70;6.10;;;;;;;14.07;100.00;96800.50;4975420;28;20834;-62
2022/05/12 01:03:41;;;;;;;6.67;6.27;;;;;;;14.11;100.00;96803.56;4934548;28;20229;-60
2022/05/12 01:06:10;;;;;;;6.47;5.97;;;;;;;14.11;100.00;96804.34;4953467;28;21458;-59
2022/05/12 01:08:39;;;;;;;6.17;5.73;;;;;;;14.15;100.00;96802.09;4981771;28;20267;-61
2022/05/12 01:11:12;;;;;;;7.13;6.50;;;;;;;14.26;100.00;96798.72;4982858;28;20205;-62
2022/05/12 01:13:43;;;;;;;6.47;6.07;;;;;;;14.39;100.00;96799.63;4947529;28;20353;-60
2022/05/12 01:16:11;;;;;;;7.20;6.67;;;;;;;14.49;100.00;96802.66;4978487;28;20342;-56
2022/05/12 01:18:41;;;;;;;7.23;6.67;;;;;;;14.51;100.00;96795.25;4948365;28;20441;-62
2022/05/12 01:21:12;;;;;;;6.57;6.07;;;;;;;14.59;100.00;96802.16;4954969;28;20701;-57
2022/05/12 01:23:42;;;;;;;7.47;6.77;;;;;;;14.64;100.00;96794.31;4960011;28;20283;-59
2022/05/12 01:26:13;;;;;;;6.77;6.17;;;;;;;14.65;100.00;96806.59;4974007;28;20795;-60
2022/05/12 01:28:41;;;;;;;6.60;6.10;;;;;;;14.68;100.00;96800.84;4937303;28;20217;-64
2022/05/12 01:31:10;;;;;;;6.77;6.27;;;;;;;14.73;100.00;96808.19;4970003;28;20644;-61
2022/05/12 01:33:38;;;;;;;7.43;6.57;;;;;;;14.64;100.00;96799.66;4961872;28;20232;-60
2022/05/12 01:36:07;;;;;;;6.40;6.00;;;;;;;14.56;100.00;96795.41;4932516;28;20956;-62
2022/05/12 01:38:35;;;;;;;6.97;6.47;;;;;;;14.50;100.00;96803.44;4959486;28;20213;-61
2022/05/12 01:41:05;;;;;;;6.60;6.10;;;;;;;14.45;100.00;96796.13;4971235;28;20455;-61
2022/05/12 01:43:33;;;;;;;6.97;6.33;;;;;;;14.47;100.00;96794.06;4972060;28;20271;-62
2022/05/12 01:46:02;;;;;;;7.50;6.80;;;;;;;14.36;100.00;96790.25;4960381;28;20376;-63
2022/05/12 01:48:31;;;;;;;6.50;6.10;;;;;;;14.29;100.00;96805.47;4964392;28;20304;-62
2022/05/12 01:50:59;;;;;;;6.90;6.40;;;;;;;14.36;100.00;96808.06;4941597;28;20506;-61
2022/05/12 01:53:30;;;;;;;6.80;6.30;;;;;;;14.35;100.00;96803.78;4950243;28;20268;-60
2022/05/12 01:55:58;;;;;;;7.00;6.30;;;;;;;14.33;100.00;96806.66;4975606;28;20404;-61
2022/05/12 01:58:27;;;;;;;7.63;6.30;;;;;;;14.27;100.00;96820.88;4976455;28;20216;-58
2022/05/12 02:00:55;;;;;;;7.50;6.90;;;;;;;14.34;100.00;96816.28;4934821;28;20297;-57
2022/05/12 02:03:24;;;;;;;7.10;6.40;;;;;;;14.44;100.00;96821.16;4977602;28;20229;-58
2022/05/12 02:05:52;;;;;;;9.87;7.27;;;;;;;14.37;100.00;96825.69;4923713;28;20807;-59
2022/05/12 02:08:20;;;;;;;7.23;6.53;;;;;;;14.44;100.00;96831.81;4965183;28;20271;-59
2022/05/12 02:10:51;;;;;;;7.57;6.97;;;;;;;14.32;100.00;96837.00;4958164;28;20213;-59
2022/05/12 02:13:25;;;;;;;8.17;7.37;;;;;;;14.26;100.00;96840.53;4977797;28;20737;-58
2022/05/12 02:15:56;;;;;;;7.67;7.07;;;;;;;14.27;100.00;96842.19;4932744;28;20459;-62
2022/05/12 02:18:25;;;;;;;12.20;7.43;;;;;;;14.22;100.00;96840.16;4981425;28;20253;-59
2022/05/12 02:20:54;;;;;;;6.60;6.20;;;;;;;14.30;100.00;96847.06;4922971;28;20209;-61
2022/05/12 02:23:23;;;;;;;6.53;6.03;;;;;;;14.24;100.00;96840.75;4968375;28;20312;-59
2022/05/12 02:25:51;;;;;;;6.97;6.37;;;;;;;14.28;100.00;96843.81;4958411;28;20225;-55
2022/05/12 02:28:20;;;;;;;7.70;7.00;;;;;;;14.18;100.00;96855.75;4975464;28;20210;-60
2022/05/12 02:30:48;;;;;;;7.33;6.73;;;;;;;14.17;100.00;96848.78;4926515;28;20690;-60
2022/05/12 02:33:18;;;;;;;7.53;7.03;;;;;;;14.27;100.00;96858.16;4980020;28;20233;-57
2022/05/12 02:35:46;;;;;;;6.93;6.53;;;;;;;14.23;100.00;96857.78;4969630;28;20991;-61
2022/05/12 02:38:15;;;;;;;7.77;7.07;;;;;;;14.24;100.00;96856.72;4930782;28;20224;-62
2022/05/12 02:40:43;;;;;;;7.37;6.87;;;;;;;14.27;100.00;96866.16;4959322;28;20766;-60
2022/05/12 02:43:24;;;;;;;7.13;6.53;;;;;;;14.17;100.00;96859.44;4978205;28;20696;-63
2022/05/12 02:45:54;;;;;;;7.50;6.80;;;;;;;14.06;100.00;96862.00;4900977;28;20430;-63
2022/05/12 02:48:25;;;;;;;7.60;6.70;;;;;;;13.98;100.00;96853.19;4976044;28;20210;-59
2022/05/12 02:50:54;;;;;;;8.00;7.50;;;;;;;14.00;100.00;96855.66;4977959;28;20206;-63
2022/05/12 02:53:23;;;;;;;7.50;6.73;;;;;;;13.89;100.00;96862.47;4918054;28;20233;-63
2022/05/12 02:55:57;;;;;;;7.30;6.70;;;;;;;13.84;100.00;96860.47;4960765;28;20233;-61
2022/05/12 02:58:26;;;;;;;8.10;7.27;;;;;;;13.81;100.00;96857.41;4978560;28;20213;-61
2022/05/12 03:00:54;;;;;;;9.37;8.13;;;;;;;13.72;100.00;96868.31;4940820;28;20998;-63
2022/05/12 03:03:24;;;;;;;7.83;7.23;;;;;;;13.67;100.00;96857.47;4956784;28;20348;-62
2022/05/12 03:05:53;;;;;;;6.67;6.27;;;;;;;13.68;100.00;96856.44;4977946;28;20721;-64
2022/05/12 03:08:21;;;;;;;7.50;7.00;;;;;;;13.58;100.00;96867.53;4980581;28;20259;-62
2022/05/12 03:10:51;;;;;;;8.63;7.57;;;;;;;13.48;100.00;96867.19;4910950;28;20208;-60
2022/05/12 03:13:20;;;;;;;7.17;6.67;;;;;;;13.43;100.00;96870.47;4952818;28;20244;-63
2022/05/12 03:15:48;;;;;;;7.60;7.00;;;;;;;13.39;100.00;96877.19;4944835;28;21024;-60
2022/05/12 03:18:16;;;;;;;7.23;6.63;;;;;;;13.34;100.00;96879.66;4958452;28;20210;-62
2022/05/12 03:20:46;;;;;;;7.60;6.97;;;;;;;13.23;100.00;96882.94;4971470;28;20403;-61
2022/05/12 03:23:22;;;;;;;7.10;6.60;;;;;;;13.12;100.00;96882.56;4983931;28;20248;-56
2022/05/12 03:25:51;;;;;;;8.17;7.40;;;;;;;13.03;100.00;96886.47;4932563;28;20648;-63
2022/05/12 03:28:20;;;;;;;7.50;6.90;;;;;;;13.09;100.00;96890.16;4954532;28;20217;-55
2022/05/12 03:30:49;;;;;;;8.00;7.30;;;;;;;13.04;100.00;96885.47;4973617;28;20607;-62
2022/05/12 03:33:17;;;;;;;7.50;6.80;;;;;;;13.01;100.00;96883.22;4942172;28;20233;-63
2022/05/12 03:35:49;;;;;;;8.80;7.87;;;;;;;12.96;100.00;96902.44;4982683;28;20751;-63
2022/05/12 03:38:17;;;;;;;8.63;7.83;;;;;;;13.08;100.00;96896.50;4964356;28;20775;-62
2022/05/12 03:40:45;;;;;;;8.10;7.27;;;;;;;13.03;100.00;96905.09;4932648;28;20394;-58
2022/05/12 03:44:46;;;;;;;7.90;7.30;;;;;;;13.01;100.00;96905.28;4960799;28;20550;-62
2022/05/12 03:46:02;;;;;;;7.90;7.20;;;;;;;13.08;100.00;96912.47;4947048;28;20512;-60
2022/05/12 03:48:31;;;;;;;8.03;7.33;;;;;;;13.08;100.00;96913.28;4922130;28;20467;-62
2022/05/12 03:51:00;;;;;;;8.40;7.60;;;;;;;13.11;100.00;96920.03;4959179;28;20557;-59
2022/05/12 03:53:28;;;;;;;8.10;7.50;;;;;;;13.15;100.00;96916.75;4961214;28;20537;-57
2022/05/12 03:55:57;;;;;;;7.60;6.97;;;;;;;13.14;100.00;96917.75;4984384;28;20280;-58
2022/05/12 03:58:25;;;;;;;7.57;7.07;;;;;;;13.17;100.00;96924.53;4913747;28;20290;-61
2022/05/12 04:00:54;;;;;;;8.00;7.33;;;;;;;13.24;100.00;96927.16;4975827;28;20205;-59
2022/05/12 04:03:22;;;;;;;8.13;7.33;;;;;;;13.31;100.00;96933.31;4942913;28;20603;-61
2022/05/12 04:05:51;;;;;;;8.53;7.73;;;;;;;13.38;100.00;96936.75;4992311;28;20220;-55
2022/05/12 04:08:21;;;;;;;7.87;7.17;;;;;;;13.45;100.00;96934.94;4942513;28;20316;-61
2022/05/12 04:10:51;;;;;;;7.40;6.80;;;;;;;13.55;100.00;96937.16;4979876;28;20312;-59
2022/05/12 04:13:19;;;;;;;8.43;7.73;;;;;;;13.67;100.00;96940.00;4935966;28;20308;-60
2022/05/12 04:15:48;;;;;;;7.63;6.97;;;;;;;13.71;100.00;96943.88;4963085;28;20213;-63
2022/05/12 04:18:16;;;;;;;7.53;7.00;;;;;;;13.88;100.00;96954.06;4973099;28;20881;-61
2022/05/12 04:20:44;;;;;;;8.50;7.80;;;;;;;13.93;100.00;96950.75;4947168;28;20239;-62
2022/05/12 04:23:12;;;;;;;7.70;7.00;;;;;;;13.94;100.00;96955.88;4960483;28;20229;-64
2022/05/12 04:25:42;;;;;;;7.83;7.20;;;;;;;13.98;100.00;96959.75;4976528;28;20209;-62
2022/05/12 04:28:11;;;;;;;7.67;6.87;;;;;;;14.03;100.00;96959.94;4941410;28;20345;-62
2022/05/12 04:30:40;;;;;;;7.93;7.13;;;;;;;14.09;100.00;96960.13;4959941;28;20321;-61
2022/05/12 04:35:54;;;;;;;8.27;7.47;;;;;;;14.19;100.00;96965.81;4952462;28;20237;-56
2022/05/12 04:38:22;;;;;;;7.57;6.97;;;;;;;14.29;100.00;96971.50;4943096;28;20239;-57
2022/05/12 04:40:52;;;;;;;7.40;6.80;;;;;;;14.40;100.00;96977.19;4986761;28;20233;-56
2022/05/12 04:43:20;;;;;;;7.67;7.00;;;;;;;14.58;100.00;96976.44;4938343;28;20582;-61
2022/05/12 04:45:49;;;;;;;7.70;7.10;;;;;;;14.75;100.00;96982.13;4963313;28;20268;-60
2022/05/12 04:48:23;;;;;;;7.40;6.70;;;;;;;14.93;100.00;96981.38;4980177;28;20193;-58
2022/05/12 04:50:51;;;;;;;7.23;6.73;;;;;;;15.11;100.00;96987.81;4953970;28;20704;-56
2022/05/12 04:53:20;;;;;;;9.10;8.33;;;;;;;15.25;100.00;96997.34;4956200;28;20566;-61
2022/05/12 04:55:48;;;;;;;8.23;7.27;;;;;;;15.42;100.00;96997.59;4960339;28;20291;-59
2022/05/12 04:58:17;;;;;;;8.73;7.57;;;;;;;15.46;100.00;96998.00;4943606;28;20229;-63
2022/05/12 05:00:46;;;;;;;7.90;7.17;;;;;;;15.74;100.00;97010.03;4982765;28;20209;-59
2022/05/12 05:03:14;;;;;;;7.00;6.43;;;;;;;15.93;100.00;97012.75;4955791;28;20381;-62
2022/05/12 05:05:47;;;;;;;7.87;7.07;;;;;;;16.12;100.00;97022.41;4938898;28;20225;-54
2022/05/12 05:08:18;;;;;;;8.03;7.13;;;;;;;16.05;100.00;97018.97;4981245;28;20508;-59
2022/05/12 05:10:46;;;;;;;7.50;6.87;;;;;;;16.20;100.00;97027.44;4941488;28;20462;-56
2022/05/12 05:13:15;;;;;;;7.67;7.03;;;;;;;16.07;100.00;97032.91;4933429;28;20240;-62
2022/05/12 05:15:45;;;;;;;9.00;7.63;;;;;;;16.08;100.00;97034.56;4948258;28;20217;-57
2022/05/12 05:18:14;;;;;;;9.83;7.50;;;;;;;16.39;100.00;97035.44;4962666;28;20327;-60
2022/05/12 05:20:44;;;;;;;7.93;7.23;;;;;;;16.73;100.00;97046.50;4940061;28;20772;-61
2022/05/12 05:23:13;;;;;;;7.40;6.57;;;;;;;16.90;100.00;97040.53;4982935;28;20225;-60
2022/05/12 05:25:41;;;;;;;7.50;6.77;;;;;;;16.98;100.00;97050.09;4954932;28;20293;-62
2022/05/12 05:28:10;;;;;;;7.87;7.37;;;;;;;17.20;100.00;97051.22;4978067;28;20269;-60
2022/05/12 05:30:38;;;;;;;7.63;7.07;;;;;;;17.13;100.00;97047.00;4940627;28;20424;-59
2022/05/12 05:33:08;;;;;;;7.43;6.80;;;;;;;17.01;100.00;97055.84;4965493;28;20237;-58
2022/05/12 05:35:36;;;;;;;7.43;6.90;;;;;;;17.24;100.00;97056.13;4980863;28;20927;-58
2022/05/12 05:38:04;;;;;;;11.07;7.47;;;;;;;17.48;100.00;97065.00;4946083;28;20228;-62
2022/05/12 05:40:33;;;;;;;10.93;8.20;;;;;;;17.71;100.00;97066.06;4959898;28;20614;-59
2022/05/12 05:43:02;;;;;;;8.43;6.97;;;;;;;17.87;100.00;97069.91;4973099;28;20721;-53
2022/05/12 05:45:31;;;;;;;7.57;6.87;;;;;;;17.98;100.00;97077.13;4935467;28;21228;-59
2022/05/12 05:48:03;;;;;;;7.43;6.73;;;;;;;18.05;100.00;97075.16;4980639;28;20537;-59
2022/05/12 05:53:23;;;;;;;7.03;6.43;;;;;;;18.28;100.00;97072.69;4960891;28;20628;-56
2022/05/12 05:53:26;;;;;;;10.33;7.00;;;;;;;18.55;100.00;97077.50;4954270;28;20753;-57
2022/05/12 05:55:56;;;;;;;7.83;6.97;;;;;;;18.80;100.00;97088.75;4964883;28;20217;-63
2022/05/12 05:58:25;;;;;;;5.40;4.90;;;;;;;18.96;100.00;97072.91;4957585;28;20230;-60
2022/05/12 06:00:54;;;;;;;5.00;4.60;;;;;;;19.18;100.00;97081.13;4937142;28;20633;-62
2022/05/12 06:03:23;;;;;;;5.07;4.77;;;;;;;19.16;100.00;97088.59;4975240;28;20427;-59
2022/05/12 06:05:52;;;;;;;4.67;4.33;;;;;;;19.33;100.00;97087.84;4959505;28;20789;-62
2022/05/12 06:08:22;;;;;;;4.83;4.33;;;;;;;19.50;96.42;97085.13;4944189;28;20213;-59
2022/05/12 06:10:58;;;;;;;5.33;4.93;;;;;;;19.61;94.66;97096.84;4980796;28;20308;-60
2022/05/12 06:13:26;;;;;;;4.07;3.63;;;;;;;19.91;90.47;97088.50;4936437;28;20237;-58
2022/05/12 06:15:54;;;;;;;6.80;3.83;;;;;;;19.84;90.15;97103.94;4979209;28;20312;-60
2022/05/12 06:18:22;;;;;;;3.93;3.53;;;;;;;19.95;89.08;97108.47;4935136;28;20956;-61
2022/05/12 06:20:52;;;;;;;4.37;4.03;;;;;;;19.96;90.71;97117.31;4960164;28;20566;-60
2022/05/12 06:23:20;;;;;;;3.87;3.33;;;;;;;20.08;85.72;97130.69;4945711;28;20470;-59
2022/05/12 06:25:48;;;;;;;3.83;3.63;;;;;;;20.02;89.14;97129.78;4982822;28;20687;-58
2022/05/12 06:28:16;;;;;;;3.50;2.90;;;;;;;20.24;82.85;97124.44;4943744;28;20303;-62
2022/05/12 06:30:45;;;;;;;7.03;3.40;;;;;;;20.05;83.67;97128.47;4978044;28;20213;-58
2022/05/12 06:33:17;;;;;;;3.20;2.67;;;;;;;20.17;81.58;97131.88;4938073;28;20316;-61
2022/05/12 06:35:47;;;;;;;3.10;2.90;;;;;;;20.07;82.49;97139.81;4960435;28;20201;-60
2022/05/12 06:38:17;;;;;;;2.87;2.63;;;;;;;20.25;81.15;97133.34;4949754;28;20232;-61
2022/05/12 06:40:45;;;;;;;3.03;2.83;;;;;;;20.10;81.65;97142.00;4985612;28;20575;-58
2022/05/12 06:43:13;;;;;;;2.83;2.70;;;;;;;20.28;80.78;97140.91;4963206;28;20236;-61
2022/05/12 06:45:42;;;;;;;4.07;3.20;;;;;;;20.24;81.20;97156.72;4963358;28;20248;-64
2022/05/12 06:48:10;;;;;;;3.43;3.13;;;;;;;20.44;81.72;97154.56;4943928;28;20224;-63
2022/05/12 06:50:39;;;;;;;2.80;2.63;;;;;;;20.36;80.79;97158.50;4987922;28;20431;-62
2022/05/12 06:53:07;;;;;;;3.20;2.87;;;;;;;20.21;78.35;97167.16;4967894;28;20247;-61
2022/05/12 06:55:36;;;;;;;3.63;3.07;;;;;;;20.51;77.02;97160.59;4952833;28;20214;-61
2022/05/12 06:58:04;;;;;;;5.93;3.80;;;;;;;20.45;79.65;97165.09;4966423;28;20655;-61
2022/05/12 07:00:33;;;;;;;3.10;2.57;;;;;;;20.63;78.78;97166.66;4977917;28;20305;-62
2022/05/12 07:03:01;;;;;;;3.40;2.30;;;;;;;21.02;77.08;97163.09;4979631;28;20235;-61
2022/05/12 07:05:35;;;;;;;2.97;2.77;;;;;;;21.04;78.99;97165.56;4959050;28;20675;-55
2022/05/12 07:08:04;;;;;;;2.60;2.50;;;;;;;21.27;75.06;97177.94;4971480;28;20276;-60
2022/05/12 07:10:32;;;;;;;3.00;2.80;;;;;;;20.92;74.83;97179.16;4948746;28;21402;-63
2022/05/12 07:13:02;;;;;;;4.23;3.20;;;;;;;20.90;81.14;97175.91;4971456;28;20244;-56
2022/05/12 07:15:30;;;;;;;4.03;3.17;;;;;;;21.05;75.06;97184.19;4978094;28;20672;-57
2022/05/12 07:17:59;;;;;;;3.00;2.80;;;;;;;20.84;75.78;97185.81;4966873;28;20224;-62
2022/05/12 07:28:47;;;;;;;3.13;2.80;;;;;;;21.53;71.42;97191.66;4973387;28;20523;-64
2022/05/12 07:31:15;;;;;;;3.40;3.20;;;;;;;21.44;72.32;97185.91;4981880;28;20434;-61
2022/05/12 07:33:46;;;;;;;4.40;3.27;;;;;;;21.53;71.47;97187.09;4973871;28;20724;-60
2022/05/12 07:36:16;;;;;;;3.03;2.83;;;;;;;21.76;70.28;97198.66;4958676;28;20432;-62
2022/05/12 07:38:45;;;;;;;5.10;2.77;;;;;;;21.51;71.41;97208.09;4964137;28;20241;-61
2022/05/12 07:41:13;;;;;;;2.77;2.57;;;;;;;21.49;73.47;97204.03;4950640;28;20323;-61
2022/05/12 07:43:42;;;;;;;3.00;2.73;;;;;;;21.74;69.55;97206.19;4965614;28;20236;-63
2022/05/12 07:46:13;;;;;;;4.53;2.90;;;;;;;21.25;76.33;97207.00;4960913;28;20709;-60
2022/05/12 07:48:42;;;;;;;3.97;3.67;;;;;;;21.36;74.87;97208.75;4979175;28;20759;-62
2022/05/12 07:51:10;;;;;;;3.33;2.73;;;;;;;21.15;76.73;97206.91;4948204;28;20503;-61
2022/05/12 07:53:38;;;;;;;2.87;2.70;;;;;;;20.99;78.57;97212.09;4982378;28;20320;-58
2022/05/12 07:56:07;;;;;;;3.00;2.70;;;;;;;20.90;80.95;97214.44;4966976;28;20503;-61
2022/05/12 07:58:36;;;;;;;2.93;2.80;;;;;;;21.23;76.30;97215.38;4954972;28;20307;-58
2022/05/12 08:01:05;;;;;;;4.67;2.63;;;;;;;21.55;74.69;97211.91;4966882;28;20485;-58
2022/05/12 08:03:35;;;;;;;2.47;2.27;;;;;;;21.66;73.17;97220.13;4978965;28;20255;-56
2022/05/12 08:06:04;;;;;;;2.70;2.23;;;;;;;21.83;69.19;97223.53;4939338;28;20468;-60
2022/05/12 08:08:32;;;;;;;5.83;2.30;;;;;;;22.28;67.99;97217.94;4980162;28;20290;-57
2022/05/12 08:11:00;;;;;;;3.70;2.43;;;;;;;22.64;63.07;97217.41;4966281;28;20216;-61
2022/05/12 08:13:28;;;;;;;4.07;2.03;;;;;;;22.83;64.45;97225.88;4953083;28;20800;-56
2022/05/12 08:15:56;;;;;;;3.13;2.13;;;;;;;22.85;65.15;97234.50;4958587;28;20209;-61
2022/05/12 08:18:29;;;;;;;2.53;2.30;;;;;;;22.77;66.84;97229.63;4976085;28;20232;-54
2022/05/12 08:20:58;;;;;;;2.03;1.90;;;;;;;22.55;63.11;97230.56;4939042;28;20341;-59
2022/05/12 08:23:26;;;;;;;1.97;1.87;;;;;;;22.41;65.12;97236.41;4978814;28;20252;-60
2022/05/12 08:25:55;;;;;;;2.23;2.13;;;;;;;22.62;63.16;97222.25;4963233;28;20293;-61
2022/05/12 08:28:27;;;;;;;2.40;2.07;;;;;;;22.39;63.16;97233.16;4980108;28;20198;-58
2022/05/12 08:30:56;;;;;;;4.17;2.20;;;;;;;22.17;65.28;97227.03;4934201;28;20214;-60
2022/05/12 08:33:24;;;;;;;2.00;1.80;;;;;;;22.30;64.81;97240.06;4974678;28;20477;-62
2022/05/12 08:35:53;;;;;;;1.90;1.80;;;;;;;22.58;60.47;97230.03;4938115;28;20621;-61
2022/05/12 08:38:23;;;;;;;3.87;1.63;;;;;;;22.76;61.75;97236.09;4975034;28;20318;-57
2022/05/12 08:41:02;;;;;;;5.03;2.27;;;;;;;22.99;58.88;97246.47;4970848;28;20204;-62
2022/05/12 08:43:36;;;;;;;6.40;2.53;;;;;;;22.88;61.43;97241.25;4984796;28;20315;-57
2022/05/12 08:46:07;;;;;;;3.90;1.80;;;;;;;23.04;61.75;97251.09;4929841;28;20835;-60
2022/05/12 08:48:39;;;;;;;2.83;1.80;;;;;;;22.97;57.71;97262.13;4981230;28;20268;-60
2022/05/12 08:51:08;;;;;;;2.53;1.87;;;;;;;22.39;61.49;97262.00;4963966;28;20697;-61
2022/05/12 08:53:43;;;;;;;4.73;2.23;;;;;;;22.47;61.44;97266.94;4939015;28;20233;-63
2022/05/12 08:56:13;;;;;;;3.43;1.83;;;;;;;22.73;59.35;97267.13;4958971;28;20899;-63
2022/05/12 08:58:43;;;;;;;1.80;1.70;;;;;;;22.10;62.33;97270.41;4981025;28;20284;-62
2022/05/12 09:01:15;;;;;;;2.10;2.00;;;;;;;22.03;64.02;97280.59;4951691;28;20331;-61
2022/05/12 09:03:52;;;;;;;1.73;1.63;;;;;;;22.39;62.46;97279.03;4964781;28;20231;-63
2022/05/12 09:06:22;;;;;;;2.13;1.60;;;;;;;22.37;63.38;97286.56;4963618;28;20588;-61
2022/05/12 09:08:57;;;;;;;2.43;1.80;;;;;;;22.51;61.90;97286.94;4945789;28;20696;-62
2022/05/12 09:11:29;;;;;;;5.90;1.80;;;;;;;22.34;63.65;97295.16;4982654;28;20211;-63
2022/05/12 09:13:59;;;;;;;2.07;1.57;;;;;;;22.65;62.46;97289.22;4960367;28;20287;-57
2022/05/12 09:16:30;;;;;;;2.27;2.07;;;;;;;22.44;62.34;97293.63;4950974;28;20301;-56
2022/05/12 09:18:59;;;;;;;3.63;1.80;;;;;;;21.97;66.39;97296.75;4954642;28;20237;-61
2022/05/12 09:21:29;;;;;;;1.67;1.57;;;;;;;22.04;64.63;97287.63;4979421;28;21121;-57
2022/05/12 09:23:58;;;;;;;1.43;1.43;;;;;;;22.37;66.05;97283.03;4943907;28;20237;-62
2022/05/12 09:26:39;;;;;;;2.83;1.60;;;;;;;22.88;61.50;97298.00;4977676;28;20229;-61
2022/05/12 09:29:10;;;;;;;1.70;1.60;;;;;;;22.36;66.82;97279.56;4964723;28;20375;-59
2022/05/12 09:31:39;;;;;;;1.90;1.80;;;;;;;22.37;64.05;97280.34;4974838;28;20375;-61
2022/05/12 09:34:16;;;;;;;2.20;2.07;;;;;;;21.98;66.49;97292.97;4929479;28;20366;-58
2022/05/12 09:36:45;;;;;;;2.70;1.97;;;;;;;21.98;70.22;97284.88;4979499;28;20615;-60
2022/05/12 09:39:32;;;;;;;2.57;2.37;;;;;;;22.16;66.94;97290.16;4940829;28;20271;-53
2022/05/12 09:42:01;;;;;;;2.10;2.00;;;;;;;22.72;63.66;97299.78;4972792;28;20634;-60
2022/05/12 09:44:31;;;;;;;1.73;1.60;;;;;;;23.28;64.00;97293.91;4959861;28;20815;-58
2022/05/12 09:47:02;;;;;;;2.77;2.57;;;;;;;22.41;65.25;97286.84;4951087;28;20679;-62
2022/05/12 09:49:35;;;;;;;2.30;2.20;;;;;;;22.27;68.98;97291.88;4968748;28;20666;-57
2022/05/12 09:52:31;;;;;;;1.90;1.80;;;;;;;22.89;62.51;97303.16;4976698;28;20461;-60
2022/05/12 09:55:14;;;;;;;2.20;2.00;;;;;;;22.44;63.89;97294.44;4940413;28;20703;-56
2022/05/12 09:57:48;;;;;;;2.57;2.40;;;;;;;23.13;64.47;97291.94;4976504;28;20528;-60
2022/05/12 10:00:37;;;;;;;2.00;1.90;;;;;;;22.57;66.19;97289.72;4961405;28;20454;-57
2022/05/12 10:09:05;;;;;;;3.00;2.70;;;;;;;22.88;62.66;97279.91;4951700;28;20213;-60
2022/05/12 10:11:37;;;;;;;4.97;2.50;;;;;;;22.47;63.20;97282.34;4979964;28;20585;-62
2022/05/12 10:14:06;;;;;;;2.97;1.93;;;;;;;22.98;61.59;97269.16;4955239;28;20697;-61
2022/05/12 10:16:34;;;;;;;3.93;2.40;;;;;;;22.98;63.38;97279.16;4979370;28;20625;-55
2022/05/12 10:19:07;;;;;;;2.83;2.20;;;;;;;22.93;65.44;97289.94;4943361;28;20868;-58
2022/05/12 10:21:39;;;;;;;2.67;2.47;;;;;;;23.09;63.55;97264.63;4971349;28;20220;-59
2022/05/12 10:24:17;;;;;;;4.40;2.73;;;;;;;23.36;58.19;97263.69;4938853;28;21324;-57
2022/05/12 10:26:51;;;;;;;4.50;2.80;;;;;;;23.44;57.27;97262.34;4976666;28;20554;-62
2022/05/12 10:29:42;;;;;;;2.70;2.53;;;;;;;23.31;58.28;97273.66;4979287;28;20221;-61
2022/05/12 10:32:16;;;;;;;3.30;2.93;;;;;;;23.51;57.60;97264.78;4964345;28;20209;-62
2022/05/12 10:34:52;;;;;;;3.17;2.43;;;;;;;24.16;57.05;97258.16;4945384;28;20233;-61
2022/05/12 10:37:37;;;;;;;2.90;2.50;;;;;;;24.32;54.09;97264.38;4962383;28;20589;-61
2022/05/12 10:40:20;;;;;;;3.27;2.97;;;;;;;23.86;54.21;97274.06;4938878;28;20947;-62
2022/05/12 10:42:57;;;;;;;3.77;2.70;;;;;;;23.44;60.53;97275.06;4973631;28;20244;-61
2022/05/12 10:45:29;;;;;;;3.07;2.50;;;;;;;23.47;61.56;97274.53;4979174;28;20197;-57
2022/05/12 10:48:08;;;;;;;2.53;2.30;;;;;;;23.50;59.54;97280.22;4957915;28;20213;-62
2022/05/12 10:50:42;;;;;;;2.80;2.57;;;;;;;23.19;59.74;97276.53;4954975;28;20235;-63
2022/05/12 10:53:36;;;;;;;3.60;2.80;;;;;;;22.51;63.78;97278.84;4978088;28;20216;-59
2022/05/12 10:56:16;;;;;;;2.70;2.50;;;;;;;22.66;64.18;97280.84;4940260;28;20893;-58
2022/05/12 10:58:50;;;;;;;2.60;2.40;;;;;;;23.10;64.13;97278.91;4981342;28;20924;-62
2022/05/12 11:01:22;;;;;;;3.00;2.80;;;;;;;23.18;60.83;97277.63;4975237;28;20228;-60
2022/05/12 11:03:54;;;;;;;2.80;2.60;;;;;;;23.35;56.95;97272.03;4961091;28;20229;-61
2022/05/12 11:06:26;;;;;;;6.07;2.97;;;;;;;23.77;55.32;97262.94;4936334;28;21069;-58
2022/05/12 11:08:57;;;;;;;5.93;2.90;;;;;;;23.89;56.18;97270.81;4975484;28;20205;-60
2022/05/12 11:11:29;;;;;;;3.27;2.40;;;;;;;23.96;56.23;97257.84;4943439;28;20204;-57
2022/05/12 11:14:03;;;;;;;5.20;2.40;;;;;;;23.38;61.70;97261.53;4978004;28;20245;-62
2022/05/12 11:16:53;;;;;;;4.37;2.57;;;;;;;23.26;55.31;97263.63;4977311;28;20284;-61
2022/05/12 11:19:24;;;;;;;3.73;2.90;;;;;;;23.70;53.17;97257.81;4973608;28;20220;-57
2022/05/12 11:22:01;;;;;;;6.00;2.70;;;;;;;23.91;57.46;97251.63;4948570;28;20232;-60
2022/05/12 11:24:39;;;;;;;3.17;2.63;;;;;;;23.73;52.55;97258.38;4981882;28;20220;-57
2022/05/12 11:27:20;;;;;;;6.03;2.90;;;;;;;23.40;51.22;97259.38;4947794;28;20220;-61
2022/05/12 11:30:00;;;;;;;7.77;2.80;;;;;;;23.38;53.75;97255.28;4971562;28;20960;-60
2022/05/12 11:32:44;;;;;;;2.73;2.53;;;;;;;23.29;53.39;97254.97;4980299;28;20928;-57
2022/05/12 11:35:16;;;;;;;3.93;2.20;;;;;;;23.12;56.13;97253.28;4966275;28;20208;-55
2022/05/12 11:38:03;;;;;;;4.53;3.27;;;;;;;23.12;57.13;97263.28;4947510;28;20237;-59
2022/05/12 11:40:52;;;;;;;2.90;2.70;;;;;;;23.05;60.73;97252.72;4984805;28;20228;-57
2022/05/12 11:47:03;;;;;;;2.47;2.23;;;;;;;22.86;61.01;97255.06;4978321;22;20237;-60
2022/05/12 11:49:41;;;;;;;2.73;2.43;;;;;;;22.99;61.86;97251.88;4933827;28;20246;-62
2022/05/12 11:52:23;;;;;;;3.43;2.90;;;;;;;22.99;60.32;97248.38;4917488;28;20218;-63
2022/05/12 11:54:53;;;;;;;2.20;2.10;;;;;;;22.88;60.29;97238.56;4946771;28;20590;-58
2022/05/12 11:57:38;;;;;;;3.43;2.50;;;;;;;22.97;61.94;97250.53;4915283;28;20216;-65
2022/05/12 12:00:09;;;;;;;2.70;2.37;;;;;;;23.15;62.14;97241.13;4945622;28;20202;-63
2022/05/12 12:02:46;;;;;;;3.77;2.47;;;;;;;23.59;60.47;97248.03;4949360;28;20214;-61
2022/05/12 12:05:48;;;;;;;4.93;3.50;;;;;;;23.66;56.05;97239.69;4935594;28;20279;-65
2022/05/12 12:08:39;;;;;;;3.87;2.87;;;;;;;23.77;53.44;97227.78;4916793;28;20361;-62